Time;durP1;ratioP1;P1;durP2;ratioP2;P2;SDS_P1;SDS_P2;PMS_P1;PMS_P2;Temp;Humidity;BMP_temperature;BMP_pressure;BME280_temperature;BME280_humidity;BME280_pressure;Samples;Min_cycle;Max_cycle;Signal;HPM_P1;HPM_P2
2022/07/17 00:01:45;;;;;;;4.90;4.40;;;19.50;91.70;;;;;;5005512;28;20232;-70
2022/07/17 00:04:11;;;;;;;4.30;3.90;;;19.50;91.70;;;;;;5005899;28;20188;-70
2022/07/17 00:06:36;;;;;;;5.63;4.60;;;19.50;91.90;;;;;;5005740;28;20960;-69
2022/07/17 00:09:03;;;;;;;6.27;4.33;;;19.50;91.80;;;;;;5005895;28;20660;-70
2022/07/17 00:11:28;;;;;;;5.20;4.40;;;19.40;92.00;;;;;;5005798;28;20750;-71
2022/07/17 00:13:54;;;;;;;5.77;4.27;;;19.30;92.20;;;;;;5005843;28;20465;-70
2022/07/17 00:16:20;;;;;;;4.23;3.80;;;19.30;92.50;;;;;;5005465;28;20239;-71
2022/07/17 00:18:46;;;;;;;4.10;3.70;;;19.20;92.60;;;;;;5005561;28;20179;-71
2022/07/17 00:21:11;;;;;;;4.00;3.70;;;19.10;92.80;;;;;;5005590;28;20960;-70
2022/07/17 00:23:37;;;;;;;5.33;4.33;;;19.10;93.00;;;;;;5005417;28;20191;-71
2022/07/17 00:26:02;;;;;;;6.70;4.27;;;19.00;93.10;;;;;;5005581;28;20196;-71
2022/07/17 00:28:28;;;;;;;4.70;4.30;;;18.80;93.50;;;;;;5005399;28;20195;-71
2022/07/17 00:30:53;;;;;;;4.17;3.77;;;18.90;93.80;;;;;;5005418;28;20211;-71
2022/07/17 00:33:25;;;;;;;4.57;4.07;;;19.00;93.90;;;;;;5004928;28;20687;-71
2022/07/17 00:35:51;;;;;;;3.83;3.37;;;19.00;94.10;;;;;;5005228;28;20276;-71
2022/07/17 00:38:17;;;;;;;5.53;3.60;;;18.90;94.20;;;;;;5004981;28;20777;-70
2022/07/17 00:40:42;;;;;;;3.83;3.43;;;18.90;94.40;;;;;;5005090;28;20196;-71
2022/07/17 00:43:08;;;;;;;6.17;3.60;;;19.00;94.40;;;;;;5005300;28;20785;-70
2022/07/17 00:45:34;;;;;;;4.40;3.77;;;18.90;94.30;;;;;;5005139;28;20267;-69
2022/07/17 00:48:04;;;;;;;7.63;3.83;;;18.90;94.40;;;;;;5004966;28;20233;-70
2022/07/17 00:50:36;;;;;;;3.53;3.23;;;18.80;94.50;;;;;;5004205;28;20208;-70
2022/07/17 00:53:02;;;;;;;6.30;4.20;;;18.90;94.70;;;;;;5004113;28;20447;-70
2022/07/17 00:55:28;;;;;;;4.17;3.30;;;18.90;94.80;;;;;;5004983;28;20856;-70
2022/07/17 00:57:57;;;;;;;4.00;3.60;;;18.80;94.90;;;;;;5004997;28;20501;-71
2022/07/17 01:00:23;;;;;;;4.90;4.17;;;18.90;95.00;;;;;;5004949;28;20473;-70
2022/07/17 01:02:52;;;;;;;4.47;4.07;;;18.90;94.90;;;;;;5004899;28;20415;-70
2022/07/17 01:05:19;;;;;;;6.80;3.93;;;18.80;95.00;;;;;;5005312;28;20481;-70
2022/07/17 01:07:47;;;;;;;4.23;3.83;;;18.60;95.80;;;;;;5005078;28;20423;-70
2022/07/17 01:10:16;;;;;;;4.47;4.07;;;18.60;95.90;;;;;;5004318;28;20904;-69
2022/07/17 01:12:42;;;;;;;7.60;3.70;;;18.60;95.90;;;;;;5004878;28;20462;-70
2022/07/17 01:15:09;;;;;;;4.17;3.77;;;18.60;96.10;;;;;;5005134;28;20418;-69
2022/07/17 01:17:35;;;;;;;4.47;4.07;;;18.60;96.20;;;;;;5004369;28;20188;-69
2022/07/17 01:20:06;;;;;;;3.60;3.30;;;18.40;96.60;;;;;;5004270;28;20419;-71
2022/07/17 01:22:32;;;;;;;3.33;3.03;;;18.50;96.50;;;;;;5003359;28;20529;-70
2022/07/17 01:24:57;;;;;;;4.90;3.60;;;18.50;96.50;;;;;;5004522;28;20788;-70
2022/07/17 01:27:23;;;;;;;5.10;3.50;;;18.50;96.50;;;;;;5004652;28;20419;-69
2022/07/17 01:29:49;;;;;;;4.47;4.00;;;18.50;96.90;;;;;;5004713;28;20187;-70
2022/07/17 01:32:14;;;;;;;3.87;3.57;;;18.50;96.80;;;;;;5004186;28;20722;-70
2022/07/17 01:34:40;;;;;;;3.93;3.53;;;18.50;96.60;;;;;;5004648;28;20270;-71
2022/07/17 01:37:05;;;;;;;2.67;2.47;;;18.60;96.50;;;;;;5004304;28;20684;-69
2022/07/17 01:42:15;;;;;;;3.90;3.50;;;18.30;97.00;;;;;;5004218;28;20218;-70
2022/07/17 01:44:41;;;;;;;4.97;3.53;;;18.40;97.10;;;;;;5004782;28;21454;-70
2022/07/17 01:47:06;;;;;;;4.03;3.73;;;18.40;97.20;;;;;;5003969;28;20180;-70
2022/07/17 01:49:32;;;;;;;3.60;3.30;;;18.50;96.90;;;;;;5004584;28;20194;-71
2022/07/17 01:51:59;;;;;;;5.10;4.03;;;18.30;97.00;;;;;;5003834;28;20211;-69
2022/07/17 01:54:26;;;;;;;3.70;3.40;;;18.20;97.30;;;;;;5003988;28;20299;-69
2022/07/17 01:56:52;;;;;;;4.17;3.83;;;18.10;97.60;;;;;;5004230;28;20441;-71
2022/07/17 01:59:18;;;;;;;5.23;3.40;;;18.00;98.00;;;;;;5004284;28;20422;-69
2022/07/17 02:01:43;;;;;;;4.10;3.50;;;18.10;98.10;;;;;;4986220;28;20211;-70
2022/07/17 02:04:09;;;;;;;4.10;3.70;;;18.10;98.20;;;;;;5003406;28;20184;-70
2022/07/17 02:06:34;;;;;;;4.50;4.10;;;18.00;98.50;;;;;;5004173;28;20191;-70
2022/07/17 02:09:00;;;;;;;4.13;3.83;;;18.00;98.40;;;;;;5003694;28;20240;-70
2022/07/17 02:11:25;;;;;;;5.23;4.30;;;17.80;98.80;;;;;;5003920;28;20211;-70
2022/07/17 02:13:51;;;;;;;3.93;3.60;;;17.60;99.30;;;;;;5003985;28;20183;-70
2022/07/17 02:16:17;;;;;;;4.53;4.13;;;17.60;99.50;;;;;;5004085;28;20184;-70
2022/07/17 02:18:42;;;;;;;5.30;4.57;;;17.70;99.50;;;;;;5003718;28;20179;-70
2022/07/17 02:21:08;;;;;;;4.20;3.90;;;17.70;99.50;;;;;;5003849;28;20473;-70
2022/07/17 02:23:33;;;;;;;4.80;4.33;;;17.70;99.70;;;;;;5004104;28;20225;-70
2022/07/17 02:25:59;;;;;;;4.87;4.40;;;17.70;99.90;;;;;;5003511;28;20194;-69
2022/07/17 02:28:25;;;;;;;4.50;4.07;;;17.80;99.90;;;;;;5003931;28;20250;-71
2022/07/17 02:30:50;;;;;;;5.20;4.80;;;17.80;99.90;;;;;;5003727;28;20226;-70
2022/07/17 02:33:16;;;;;;;5.40;4.70;;;17.80;99.90;;;;;;5003604;28;20272;-70
2022/07/17 02:35:41;;;;;;;6.30;5.60;;;17.80;99.90;;;;;;5003621;28;20183;-70
2022/07/17 02:38:07;;;;;;;5.37;4.87;;;17.80;99.90;;;;;;5003780;28;20222;-69
2022/07/17 02:40:33;;;;;;;5.67;5.17;;;17.70;99.90;;;;;;5003707;28;20253;-71
2022/07/17 02:42:58;;;;;;;4.83;4.30;;;17.70;99.90;;;;;;5003716;28;20183;-70
2022/07/17 02:45:24;;;;;;;5.23;4.83;;;17.70;99.90;;;;;;5003678;28;20653;-70
2022/07/17 02:47:50;;;;;;;7.60;5.43;;;17.60;99.90;;;;;;5003650;28;20257;-70
2022/07/17 02:50:16;;;;;;;6.80;4.60;;;17.60;99.90;;;;;;5003550;28;20273;-71
2022/07/17 02:52:43;;;;;;;5.33;4.80;;;17.60;99.90;;;;;;5003468;28;21679;-70
2022/07/17 02:55:10;;;;;;;5.43;4.93;;;17.50;99.90;;;;;;5004133;28;20268;-70
2022/07/17 02:57:39;;;;;;;6.17;5.17;;;17.50;99.90;;;;;;5003605;28;20427;-71
2022/07/17 03:00:07;;;;;;;5.47;4.97;;;17.50;99.90;;;;;;5003488;28;21447;-70
2022/07/17 03:02:33;;;;;;;5.20;4.70;;;17.50;99.90;;;;;;5003162;28;20441;-70
2022/07/17 03:04:59;;;;;;;5.77;5.20;;;17.50;99.90;;;;;;5003703;28;20425;-69
2022/07/17 03:07:24;;;;;;;5.47;4.93;;;17.40;99.90;;;;;;5003416;28;20274;-70
2022/07/17 03:09:50;;;;;;;7.83;5.13;;;17.40;99.90;;;;;;5003388;28;20222;-70
2022/07/17 03:12:16;;;;;;;5.30;4.60;;;17.40;99.90;;;;;;5003245;28;20555;-70
2022/07/17 03:14:41;;;;;;;6.33;5.43;;;17.30;99.90;;;;;;5004239;28;20242;-70
2022/07/17 03:17:07;;;;;;;5.70;5.20;;;17.30;99.90;;;;;;5006933;28;20182;-71
2022/07/17 03:19:33;;;;;;;4.73;4.33;;;17.20;99.90;;;;;;5006321;28;20187;-70
2022/07/17 03:21:58;;;;;;;4.83;4.43;;;17.20;99.90;;;;;;5006608;28;20352;-70
2022/07/17 03:24:24;;;;;;;4.90;4.50;;;17.20;99.90;;;;;;5006596;28;20196;-70
2022/07/17 03:26:50;;;;;;;5.30;4.50;;;17.10;99.90;;;;;;5006661;28;20556;-70
2022/07/17 03:29:18;;;;;;;6.43;5.07;;;17.10;99.90;;;;;;5006610;28;20202;-70
2022/07/17 03:31:46;;;;;;;8.57;5.17;;;17.00;99.90;;;;;;5006667;28;20217;-70
2022/07/17 03:34:12;;;;;;;4.90;4.40;;;17.00;99.90;;;;;;5006411;28;20422;-70
2022/07/17 03:36:38;;;;;;;5.40;4.90;;;17.00;99.90;;;;;;5006629;28;20416;-70
2022/07/17 03:39:04;;;;;;;4.27;3.97;;;17.00;99.90;;;;;;5006506;28;20912;-70
2022/07/17 03:41:30;;;;;;;5.07;4.57;;;17.00;99.90;;;;;;5006546;28;20239;-71
2022/07/17 03:43:55;;;;;;;5.07;4.57;;;17.10;99.90;;;;;;5006499;28;20417;-70
2022/07/17 03:46:21;;;;;;;5.20;4.80;;;17.10;99.90;;;;;;5006206;28;20187;-70
2022/07/17 03:48:47;;;;;;;6.10;5.60;;;17.10;99.90;;;;;;5006139;28;20204;-70
2022/07/17 03:51:13;;;;;;;4.73;4.33;;;17.20;99.90;;;;;;5005899;28;20532;-71
2022/07/17 03:53:38;;;;;;;4.80;4.40;;;17.20;99.90;;;;;;5006073;28;20446;-70
2022/07/17 03:56:04;;;;;;;5.00;4.60;;;17.20;99.90;;;;;;5006018;28;20191;-71
2022/07/17 03:58:31;;;;;;;5.20;4.70;;;17.20;99.90;;;;;;5005935;28;20189;-70
2022/07/17 04:00:57;;;;;;;5.20;4.70;;;17.20;99.90;;;;;;5006424;28;20210;-69
2022/07/17 04:03:23;;;;;;;6.40;4.67;;;17.10;99.90;;;;;;5005491;28;20426;-70
2022/07/17 04:05:48;;;;;;;6.33;5.00;;;17.20;99.90;;;;;;5005925;28;20445;-71
2022/07/17 04:08:14;;;;;;;6.63;5.63;;;17.20;99.90;;;;;;5005435;28;20191;-70
2022/07/17 04:10:40;;;;;;;5.25;4.75;;;17.10;99.90;;;;;;5005814;28;20386;-71
2022/07/17 04:13:06;;;;;;;6.80;5.20;;;17.20;99.90;;;;;;5004862;28;20489;-70
2022/07/17 04:15:49;;;;;;;4.63;4.23;;;17.30;99.90;;;;;;5005293;28;20190;-70
2022/07/17 04:18:16;;;;;;;5.10;4.60;;;17.40;99.90;;;;;;5005735;28;20233;-69
2022/07/17 04:20:42;;;;;;;4.80;4.40;;;17.50;99.90;;;;;;5005570;28;20442;-70
2022/07/17 04:23:08;;;;;;;5.77;5.17;;;17.50;99.90;;;;;;5005535;28;20437;-70
2022/07/17 04:25:33;;;;;;;4.93;4.50;;;17.50;99.90;;;;;;5005428;28;20187;-69
2022/07/17 04:27:59;;;;;;;4.37;4.07;;;17.50;99.90;;;;;;5005744;28;20183;-71
2022/07/17 04:30:24;;;;;;;5.10;4.60;;;17.40;99.90;;;;;;5005537;28;20238;-71
2022/07/17 04:32:50;;;;;;;4.97;4.47;;;17.40;99.90;;;;;;4987685;28;20274;-71
2022/07/17 04:35:19;;;;;;;4.90;4.50;;;17.30;99.90;;;;;;5005627;28;20186;-70
2022/07/17 04:37:44;;;;;;;5.07;4.57;;;17.40;99.90;;;;;;4987639;28;20191;-70
2022/07/17 04:40:11;;;;;;;4.80;4.40;;;17.30;99.90;;;;;;5005056;28;20414;-71
2022/07/17 04:42:37;;;;;;;6.80;4.90;;;17.40;99.90;;;;;;5005480;28;20196;-71
2022/07/17 04:45:03;;;;;;;4.90;4.50;;;17.40;99.90;;;;;;5005241;28;21079;-70
2022/07/17 04:47:29;;;;;;;5.47;4.87;;;17.40;99.90;;;;;;5005244;28;20807;-70
2022/07/17 04:49:55;;;;;;;5.80;5.00;;;17.40;99.90;;;;;;5004676;28;20418;-70
2022/07/17 04:52:20;;;;;;;5.53;5.03;;;17.50;99.90;;;;;;5004860;28;20700;-71
2022/07/17 04:54:46;;;;;;;5.67;5.17;;;17.50;99.90;;;;;;5004642;28;20183;-70
2022/07/17 04:57:11;;;;;;;6.00;5.50;;;17.50;99.90;;;;;;5005419;28;20186;-70
2022/07/17 04:59:37;;;;;;;6.10;5.60;;;17.50;99.90;;;;;;5004889;28;20190;-70
2022/07/17 05:02:03;;;;;;;6.17;5.67;;;17.50;99.90;;;;;;5005674;28;20339;-68
2022/07/17 05:04:29;;;;;;;6.47;5.83;;;17.50;99.90;;;;;;5005026;28;20203;-70
2022/07/17 05:06:55;;;;;;;7.77;5.97;;;17.60;99.90;;;;;;5004966;28;20476;-70
2022/07/17 05:09:20;;;;;;;5.77;5.20;;;17.60;99.90;;;;;;5004588;28;20414;-70
2022/07/17 05:11:46;;;;;;;7.20;6.50;;;17.60;99.90;;;;;;5004887;28;20211;-70
2022/07/17 05:14:11;;;;;;;6.27;5.67;;;17.70;99.90;;;;;;5004210;28;20186;-70
2022/07/17 05:16:37;;;;;;;6.43;5.80;;;17.80;99.90;;;;;;5004846;28;20202;-69
2022/07/17 05:19:03;;;;;;;6.47;5.87;;;17.80;99.90;;;;;;5004387;28;20274;-71
2022/07/17 05:21:29;;;;;;;7.67;5.73;;;17.90;99.90;;;;;;5004979;28;21354;-70
2022/07/17 05:23:54;;;;;;;6.33;5.73;;;18.10;99.90;;;;;;5004707;28;20179;-70
2022/07/17 05:26:20;;;;;;;6.50;5.80;;;18.10;99.90;;;;;;5003562;28;20188;-70
2022/07/17 05:28:45;;;;;;;6.63;5.20;;;18.20;99.90;;;;;;5004691;28;20179;-70
2022/07/17 05:31:11;;;;;;;6.73;6.03;;;18.30;99.90;;;;;;5004636;28;20223;-69
2022/07/17 05:33:37;;;;;;;6.10;5.60;;;18.40;99.90;;;;;;4987134;28;20226;-71
2022/07/17 05:36:02;;;;;;;6.33;5.83;;;18.50;99.90;;;;;;5004717;28;20557;-70
2022/07/17 05:38:28;;;;;;;7.27;5.97;;;18.70;99.90;;;;;;5003931;28;20235;-70
2022/07/17 05:40:54;;;;;;;7.40;5.40;;;18.80;99.90;;;;;;5004074;28;20203;-70
2022/07/17 05:43:19;;;;;;;5.87;5.27;;;18.90;99.90;;;;;;5004575;28;20186;-70
2022/07/17 05:45:45;;;;;;;6.60;5.80;;;19.00;99.90;;;;;;5004204;28;20251;-70
2022/07/17 05:48:10;;;;;;;5.70;5.20;;;19.10;99.90;;;;;;5004033;28;20176;-70
2022/07/17 05:50:36;;;;;;;5.73;5.23;;;19.30;99.90;;;;;;5003969;28;20315;-69
2022/07/17 05:53:01;;;;;;;6.63;5.70;;;19.40;99.90;;;;;;5004508;28;20206;-70
2022/07/17 05:55:27;;;;;;;6.17;5.57;;;19.40;99.90;;;;;;5003877;28;20230;-69
2022/07/17 05:57:53;;;;;;;5.97;5.47;;;19.50;99.90;;;;;;5004117;28;20572;-69
2022/07/17 06:00:19;;;;;;;6.53;6.03;;;19.60;99.90;;;;;;5004233;28;20646;-70
2022/07/17 06:02:45;;;;;;;6.40;5.90;;;19.60;99.90;;;;;;5004132;28;20418;-71
2022/07/17 06:05:11;;;;;;;6.30;5.80;;;19.70;99.90;;;;;;5003855;28;20905;-70
2022/07/17 06:07:37;;;;;;;6.47;5.90;;;19.80;99.90;;;;;;5003952;28;20176;-70
2022/07/17 06:10:04;;;;;;;8.67;5.67;;;20.00;99.90;;;;;;5003772;28;20172;-69
2022/07/17 06:12:30;;;;;;;7.00;5.90;;;20.00;99.90;;;;;;5003762;28;20462;-70
2022/07/17 06:14:56;;;;;;;7.30;6.70;;;20.00;99.90;;;;;;5004136;28;20426;-70
2022/07/17 06:17:22;;;;;;;7.90;7.13;;;19.80;99.90;;;;;;5004057;28;20180;-70
2022/07/17 06:19:51;;;;;;;7.13;6.40;;;19.70;99.90;;;;;;5003534;28;20195;-70
2022/07/17 06:22:18;;;;;;;21.63;7.20;;;19.60;99.90;;;;;;5003930;28;20472;-70
2022/07/17 06:24:44;;;;;;;7.50;6.83;;;19.50;99.90;;;;;;5003653;28;20905;-70
2022/07/17 06:27:09;;;;;;;6.90;6.30;;;19.30;99.90;;;;;;5003718;28;20406;-70
2022/07/17 06:29:35;;;;;;;7.67;6.97;;;19.10;99.90;;;;;;5003916;28;20180;-70
2022/07/17 06:32:01;;;;;;;7.37;6.67;;;19.30;99.90;;;;;;5003400;28;20696;-69
2022/07/17 06:34:26;;;;;;;6.67;6.13;;;19.30;99.90;;;;;;5003667;28;20553;-71
2022/07/17 06:36:52;;;;;;;7.93;6.70;;;19.60;99.90;;;;;;5003735;28;20180;-71
2022/07/17 06:39:17;;;;;;;6.57;6.07;;;19.60;99.90;;;;;;5003670;28;20188;-70
2022/07/17 06:41:43;;;;;;;7.30;6.67;;;19.60;99.90;;;;;;4985860;28;20227;-70
2022/07/17 06:44:08;;;;;;;6.87;5.70;;;19.60;99.90;;;;;;5003529;28;20184;-68
2022/07/17 06:46:34;;;;;;;6.50;5.70;;;19.60;99.90;;;;;;5003698;28;20203;-69
2022/07/17 06:48:59;;;;;;;7.20;6.60;;;19.70;99.90;;;;;;5003316;28;20184;-69
2022/07/17 06:51:25;;;;;;;6.70;6.10;;;19.60;99.90;;;;;;5006881;28;20330;-68
2022/07/17 06:53:51;;;;;;;8.10;6.10;;;19.60;99.90;;;;;;5007134;28;20179;-69
2022/07/17 06:56:16;;;;;;;7.83;6.23;;;19.60;99.90;;;;;;5007178;28;20180;-70
2022/07/17 06:58:42;;;;;;;7.40;6.60;;;19.70;99.90;;;;;;5007091;28;20339;-69
2022/07/17 07:01:07;;;;;;;6.20;5.60;;;19.70;99.90;;;;;;5007313;28;20681;-70
2022/07/17 07:03:33;;;;;;;6.67;6.00;;;19.70;99.90;;;;;;5006552;28;20665;-70
2022/07/17 07:05:59;;;;;;;9.47;5.73;;;19.80;99.80;;;;;;5006234;28;20182;-70
2022/07/17 07:08:25;;;;;;;6.60;6.00;;;19.90;99.50;;;;;;5006203;28;20784;-69
2022/07/17 07:10:51;;;;;;;6.90;6.40;;;19.90;99.20;;;;;;5006741;28;20466;-69
2022/07/17 07:13:16;;;;;;;7.73;6.47;;;19.90;98.80;;;;;;5006998;28;20489;-69
2022/07/17 07:15:42;;;;;;;5.70;5.20;;;19.90;98.60;;;;;;5007054;28;20172;-69
2022/07/17 07:18:08;;;;;;;4.80;4.40;;;20.10;98.40;;;;;;5006726;28;20176;-69
2022/07/17 07:20:34;;;;;;;5.40;4.90;;;20.30;98.10;;;;;;4989015;28;20710;-69
2022/07/17 07:22:59;;;;;;;6.77;4.90;;;20.30;97.80;;;;;;5007105;28;20422;-70
2022/07/17 07:25:25;;;;;;;6.20;4.97;;;20.40;98.00;;;;;;5005329;28;20186;-69
2022/07/17 07:27:51;;;;;;;4.50;4.10;;;20.60;97.10;;;;;;5007159;28;20180;-71
2022/07/17 07:30:16;;;;;;;7.20;4.40;;;20.80;96.50;;;;;;5006617;28;20176;-71
2022/07/17 07:32:42;;;;;;;6.50;4.13;;;20.80;96.10;;;;;;5006755;28;20695;-70
2022/07/17 07:35:08;;;;;;;5.97;4.90;;;20.80;95.80;;;;;;5006873;28;20231;-70
2022/07/17 07:37:34;;;;;;;5.23;4.30;;;20.70;95.40;;;;;;5006666;28;20251;-70
2022/07/17 07:39:59;;;;;;;5.20;3.70;;;20.80;95.70;;;;;;5006075;28;21586;-69
2022/07/17 07:42:26;;;;;;;6.03;3.83;;;21.00;95.20;;;;;;5006554;28;20199;-69
2022/07/17 07:44:51;;;;;;;4.67;4.27;;;21.20;94.70;;;;;;5006703;28;20176;-70
2022/07/17 07:47:17;;;;;;;4.23;3.93;;;21.10;94.20;;;;;;5006096;28;20419;-69
2022/07/17 07:49:43;;;;;;;4.27;3.87;;;21.00;94.30;;;;;;5006314;28;20253;-69
2022/07/17 07:52:09;;;;;;;4.10;3.70;;;20.90;94.60;;;;;;5005846;28;20602;-70
2022/07/17 07:54:35;;;;;;;4.20;3.87;;;20.80;94.70;;;;;;5005132;28;20180;-69
2022/07/17 07:57:01;;;;;;;4.70;4.10;;;21.10;94.70;;;;;;5006432;28;20184;-70
2022/07/17 07:59:28;;;;;;;4.80;3.47;;;21.30;94.70;;;;;;5006101;28;20443;-69
2022/07/17 08:01:54;;;;;;;4.57;4.10;;;21.60;94.00;;;;;;5005877;28;20478;-70
2022/07/17 08:04:19;;;;;;;5.93;3.67;;;21.60;93.70;;;;;;5005870;28;20597;-69
2022/07/17 08:06:45;;;;;;;4.17;3.70;;;21.60;93.50;;;;;;5040539;22;20230;-70
2022/07/17 08:09:11;;;;;;;3.77;3.47;;;21.50;93.50;;;;;;5024983;28;20552;-69
2022/07/17 08:11:36;;;;;;;5.10;3.47;;;21.60;93.50;;;;;;5024147;28;20282;-70
2022/07/17 08:14:02;;;;;;;4.70;3.83;;;21.80;93.50;;;;;;5024815;28;20187;-69
2022/07/17 08:16:27;;;;;;;3.50;3.20;;;21.70;93.10;;;;;;5025228;28;20198;-70
2022/07/17 08:18:53;;;;;;;4.37;4.03;;;21.90;92.60;;;;;;5024120;28;20171;-69
2022/07/17 08:21:18;;;;;;;3.30;3.00;;;21.90;92.30;;;;;;5025374;28;20258;-70
2022/07/17 08:23:44;;;;;;;4.00;3.70;;;21.90;92.10;;;;;;5024793;28;20199;-70
2022/07/17 08:26:10;;;;;;;3.43;3.13;;;22.10;91.90;;;;;;5025072;28;20336;-71
2022/07/17 08:28:35;;;;;;;4.30;3.67;;;22.40;91.60;;;;;;5025050;28;20187;-70
2022/07/17 08:31:01;;;;;;;5.37;2.70;;;22.40;90.90;;;;;;5024258;28;20183;-70
2022/07/17 08:33:26;;;;;;;3.90;3.43;;;22.50;90.80;;;;;;5024627;28;20616;-71
2022/07/17 08:35:52;;;;;;;5.40;4.10;;;22.50;91.10;;;;;;5024535;28;20195;-71
2022/07/17 08:38:17;;;;;;;3.60;3.30;;;22.70;90.80;;;;;;5024444;28;20179;-70
2022/07/17 08:40:49;;;;;;;5.20;3.17;;;22.90;91.00;;;;;;5024793;28;20184;-70
2022/07/17 08:43:14;;;;;;;3.60;3.03;;;23.00;89.80;;;;;;5024823;28;20164;-71
2022/07/17 08:45:40;;;;;;;4.40;3.20;;;22.80;88.20;;;;;;5024706;28;20456;-70
2022/07/17 08:48:11;;;;;;;3.80;3.50;;;22.80;88.90;;;;;;5024742;28;20225;-70
2022/07/17 08:50:37;;;;;;;4.03;3.37;;;23.00;89.20;;;;;;5024300;28;20581;-71
2022/07/17 08:53:03;;;;;;;3.00;2.80;;;23.20;88.40;;;;;;5024560;28;20579;-70
2022/07/17 08:55:29;;;;;;;3.60;3.30;;;23.60;87.80;;;;;;5024313;28;20190;-71
2022/07/17 08:57:55;;;;;;;3.20;3.00;;;23.50;86.90;;;;;;5024727;28;20426;-71
2022/07/17 09:00:22;;;;;;;4.00;3.30;;;23.20;87.20;;;;;;5023769;28;20495;-72
2022/07/17 09:02:56;;;;;;;3.43;3.13;;;23.40;87.20;;;;;;5024426;28;20183;-69
2022/07/17 09:05:30;;;;;;;3.77;3.47;;;23.40;86.00;;;;;;5024403;28;20833;-69
2022/07/17 09:07:56;;;;;;;3.70;3.10;;;23.50;86.10;;;;;;5024160;28;20432;-68
2022/07/17 09:10:43;;;;;;;4.83;2.90;;;23.60;84.60;;;;;;5024434;28;20456;-69
2022/07/17 09:13:26;;;;;;;4.13;3.50;;;23.50;84.70;;;;;;5023680;28;20445;-69
2022/07/17 09:15:55;;;;;;;4.90;3.10;;;23.70;83.70;;;;;;5023879;28;20438;-70
2022/07/17 09:18:21;;;;;;;3.40;3.07;;;23.80;83.50;;;;;;5023975;28;20418;-71
2022/07/17 09:20:55;;;;;;;2.70;2.47;;;24.00;82.90;;;;;;5023911;28;20971;-70
2022/07/17 09:23:23;;;;;;;4.00;3.20;;;24.20;81.00;;;;;;5023544;28;20542;-70
2022/07/17 09:25:51;;;;;;;4.47;3.13;;;24.30;80.40;;;;;;5023960;28;20466;-70
2022/07/17 09:28:18;;;;;;;6.20;2.93;;;24.30;82.00;;;;;;5023889;28;20410;-71
2022/07/17 09:30:50;;;;;;;3.30;3.00;;;24.00;79.60;;;;;;5023785;28;20410;-70
2022/07/17 09:33:21;;;;;;;4.33;3.77;;;24.10;81.30;;;;;;5023977;28;20410;-70
2022/07/17 09:35:52;;;;;;;2.90;2.57;;;24.10;79.90;;;;;;5023476;28;20430;-70
2022/07/17 09:38:29;;;;;;;2.63;2.43;;;24.20;80.50;;;;;;5023352;28;20437;-71
2022/07/17 09:41:17;;;;;;;3.00;2.80;;;24.10;78.50;;;;;;5024225;28;20412;-70
2022/07/17 09:43:58;;;;;;;3.77;3.20;;;24.40;78.90;;;;;;5023809;28;20398;-71
2022/07/17 09:46:30;;;;;;;2.77;2.53;;;24.60;76.70;;;;;;5023867;28;20429;-69
2022/07/17 09:49:01;;;;;;;3.30;2.53;;;24.60;75.70;;;;;;5023606;28;20404;-70
2022/07/17 09:51:28;;;;;;;2.37;2.17;;;24.70;73.20;;;;;;5022477;28;20453;-75
2022/07/17 09:53:56;;;;;;;3.00;2.70;;;24.60;74.00;;;;;;5023771;28;20899;-71
2022/07/17 09:56:24;;;;;;;2.90;2.27;;;25.00;72.70;;;;;;5023566;28;20783;-72
2022/07/17 09:58:53;;;;;;;2.60;2.40;;;25.10;72.30;;;;;;5023434;28;20410;-71
2022/07/17 10:01:20;;;;;;;2.60;2.20;;;25.00;71.80;;;;;;5024169;28;20429;-73
2022/07/17 10:03:48;;;;;;;2.43;2.10;;;25.20;68.00;;;;;;5023786;28;20528;-74
2022/07/17 10:06:15;;;;;;;3.30;2.50;;;25.40;68.30;;;;;;5023717;28;20550;-71
2022/07/17 10:08:41;;;;;;;2.47;2.00;;;25.30;66.40;;;;;;5023519;28;20448;-71
2022/07/17 10:11:11;;;;;;;2.20;2.00;;;25.40;66.80;;;;;;5022783;28;21662;-70
2022/07/17 10:13:40;;;;;;;2.00;1.80;;;25.40;61.80;;;;;;5024203;28;20418;-73
2022/07/17 10:16:07;;;;;;;2.23;2.03;;;25.20;64.30;;;;;;5024040;28;20525;-69
2022/07/17 10:18:36;;;;;;;2.57;2.37;;;25.30;65.50;;;;;;5024086;28;20406;-73
2022/07/17 10:21:09;;;;;;;4.30;2.70;;;25.40;63.60;;;;;;5024250;28;20820;-72
2022/07/17 10:23:35;;;;;;;3.30;2.37;;;25.60;65.20;;;;;;5025134;28;20421;-70
2022/07/17 10:26:01;;;;;;;3.03;2.23;;;25.40;66.60;;;;;;5026536;28;20449;-72
2022/07/17 10:28:44;;;;;;;2.30;2.10;;;25.40;66.80;;;;;;5028054;28;20410;-73
2022/07/17 10:31:22;;;;;;;2.60;2.40;;;25.60;65.70;;;;;;5027855;28;21280;-71
2022/07/17 10:34:01;;;;;;;3.07;2.57;;;25.90;65.50;;;;;;5028079;28;21400;-70
2022/07/17 10:36:41;;;;;;;2.63;2.13;;;26.20;66.80;;;;;;5028153;28;20421;-72
2022/07/17 10:39:15;;;;;;;3.23;2.60;;;26.40;64.10;;;;;;5029426;28;21322;-74
2022/07/17 10:41:42;;;;;;;2.20;2.10;;;26.20;64.20;;;;;;5027978;28;20476;-72
2022/07/17 10:44:08;;;;;;;3.37;2.47;;;26.20;64.30;;;;;;5028301;28;20530;-73
2022/07/17 10:46:34;;;;;;;2.10;2.00;;;26.20;63.60;;;;;;5028154;28;20876;-73
2022/07/17 10:49:03;;;;;;;2.40;2.20;;;26.30;63.50;;;;;;5027486;28;20418;-71
2022/07/17 10:51:29;;;;;;;3.00;2.80;;;26.40;63.50;;;;;;5028307;28;20549;-71
2022/07/17 10:53:59;;;;;;;2.37;2.17;;;26.50;62.60;;;;;;5035982;28;20433;-72
2022/07/17 10:56:25;;;;;;;3.23;2.80;;;26.50;63.50;;;;;;5036246;28;20448;-73
2022/07/17 10:58:52;;;;;;;2.10;1.90;;;26.60;62.10;;;;;;5032862;28;20425;-71
2022/07/17 11:01:19;;;;;;;2.90;2.30;;;26.60;62.80;;;;;;5032532;28;20417;-72
2022/07/17 11:04:11;;;;;;;2.20;2.00;;;26.50;61.20;;;;;;5032476;28;20409;-71
2022/07/17 11:06:38;;;;;;;2.10;2.00;;;26.20;62.00;;;;;;5027145;28;20884;-72
2022/07/17 11:09:04;;;;;;;2.50;2.17;;;26.30;59.20;;;;;;5031311;28;20425;-71
2022/07/17 11:11:50;;;;;;;2.17;2.00;;;26.80;59.60;;;;;;5031757;28;20452;-71
2022/07/17 11:14:24;;;;;;;2.50;2.30;;;27.10;58.90;;;;;;5031383;28;20198;-70
2022/07/17 11:16:57;;;;;;;2.60;2.40;;;26.60;57.70;;;;;;5027416;28;20522;-70
2022/07/17 11:19:38;;;;;;;2.00;1.90;;;26.90;59.00;;;;;;5027638;28;20437;-71
2022/07/17 11:22:06;;;;;;;2.67;2.37;;;27.00;56.50;;;;;;5026857;28;20413;-72
2022/07/17 11:24:43;;;;;;;2.40;2.20;;;27.00;56.70;;;;;;5026657;28;21209;-72
2022/07/17 11:27:29;;;;;;;3.07;2.30;;;27.40;55.10;;;;;;5026374;28;20460;-73
2022/07/17 11:29:57;;;;;;;2.60;2.40;;;27.60;55.80;;;;;;5026049;28;20493;-71
2022/07/17 11:32:24;;;;;;;2.20;1.97;;;28.10;55.70;;;;;;5026656;28;20461;-71
2022/07/17 11:34:50;;;;;;;2.17;2.00;;;28.40;54.60;;;;;;5026492;28;20425;-71
2022/07/17 11:37:16;;;;;;;3.37;2.40;;;30.80;52.40;;;;;;5025844;28;20425;-71
2022/07/17 11:39:46;;;;;;;1.80;1.70;;;31.50;50.10;;;;;;5026547;28;20237;-72
2022/07/17 11:42:17;;;;;;;3.77;1.83;;;31.30;48.90;;;;;;5024991;28;20800;-71
2022/07/17 11:44:44;;;;;;;3.37;2.57;;;31.60;47.00;;;;;;5026217;28;20448;-72
2022/07/17 11:47:11;;;;;;;2.33;1.83;;;32.10;47.10;;;;;;5024613;28;20527;-71
2022/07/17 11:49:40;;;;;;;2.17;1.70;;;31.70;46.90;;;;;;5025895;28;20429;-72
2022/07/17 11:52:20;;;;;;;2.00;1.90;;;32.20;45.60;;;;;;5025998;28;20974;-72
2022/07/17 11:54:48;;;;;;;2.20;2.00;;;32.70;44.10;;;;;;5025828;28;20414;-69
2022/07/17 11:57:15;;;;;;;2.73;1.97;;;33.00;42.00;;;;;;5025295;28;20440;-74
2022/07/17 11:59:41;;;;;;;2.37;2.10;;;32.20;43.30;;;;;;5026036;28;20410;-72
2022/07/17 12:02:08;;;;;;;3.70;2.10;;;33.40;42.70;;;;;;5025679;28;20409;-71
2022/07/17 12:04:33;;;;;;;4.20;1.90;;;35.00;40.90;;;;;;5025964;28;20233;-73
2022/07/17 12:07:01;;;;;;;1.63;1.53;;;35.60;39.90;;;;;;5025727;28;20576;-71
2022/07/17 12:09:35;;;;;;;7.17;1.83;;;35.90;39.50;;;;;;5025247;28;20259;-71
2022/07/17 12:12:01;;;;;;;1.80;1.70;;;35.50;37.60;;;;;;5025474;28;20480;-72
2022/07/17 12:14:27;;;;;;;3.00;1.83;;;37.20;37.20;;;;;;5025479;28;20413;-73
2022/07/17 12:16:57;;;;;;;2.33;2.03;;;37.30;35.40;;;;;;5025657;28;20430;-72
2022/07/17 12:19:24;;;;;;;3.50;1.60;;;37.20;35.10;;;;;;5024705;28;20659;-72
2022/07/17 12:21:53;;;;;;;1.97;1.83;;;37.20;35.50;;;;;;5025480;28;20514;-71
2022/07/17 12:24:29;;;;;;;3.60;1.80;;;36.70;35.00;;;;;;5025285;28;20879;-70
2022/07/17 12:26:59;;;;;;;2.10;2.00;;;34.20;37.10;;;;;;5025445;28;20528;-73
2022/07/17 12:29:25;;;;;;;2.17;2.07;;;34.20;39.40;;;;;;5025289;28;20607;-71
2022/07/17 12:32:11;;;;;;;1.77;1.40;;;35.80;36.90;;;;;;5024837;28;20460;-71
2022/07/17 12:34:46;;;;;;;1.60;1.50;;;36.80;33.30;;;;;;5025379;28;20414;-71
2022/07/17 12:37:29;;;;;;;2.07;1.90;;;37.30;32.90;;;;;;5025013;28;20421;-72
2022/07/17 12:39:55;;;;;;;3.10;1.80;;;36.30;35.40;;;;;;5024370;28;20402;-72
2022/07/17 12:42:21;;;;;;;2.00;1.90;;;37.00;33.90;;;;;;5024733;28;20788;-71
2022/07/17 12:44:47;;;;;;;1.80;1.70;;;36.40;33.70;;;;;;5024417;28;20410;-72
2022/07/17 12:47:12;;;;;;;1.87;1.77;;;36.50;34.90;;;;;;5024933;28;20210;-72
2022/07/17 12:49:39;;;;;;;2.03;1.67;;;37.40;33.40;;;;;;5025405;28;20182;-72
2022/07/17 12:52:05;;;;;;;1.97;1.57;;;36.20;33.90;;;;;;5023439;28;20192;-72